Tropical Cyclones
[Index]
Main Index Home Page Stock Weather Photos Extreme Storms Discussion Storm News and Storm Chasing Reports Tropical Cyclones / Hurricanes / Typhoons Weather Data and Links Wild Fires / Bushfires Weather Observation Techniques Weather Picture Catalogue Tornado Pictures and Reports Stock Video Footage and DVDs for sale
Season 2013-2014 Tropical Cyclone FOBANE Track Map
Season 2013-2014 Summaries: [BoM-AU] [JTWC-AU] [JTWC-SIO] [JTWC-SPAC] [JTWC-SH]
<<- Previous TC | JTWC 2013-2014 Season | Next TC ->>

click for intensity scale information  Lat/long Grid: Show Hide

 Date Labels: Show Hide

Joint Typhoon Warning Centre Cyclone Data

Name: FOBANE

05 Feb 2014 06:00 UTC to 16 Feb 2014 18:00 UTC

    date/time    lat    long     hPa   cat  kts
2014-02-05 06   12.0    71.8    1007         20          
2014-02-05 12   12.1    71.6    1007         20          
2014-02-05 18   12.4    71.4    1002         25          
2014-02-06 00   12.7    71.5    1004         25          
2014-02-06 03   12.5    71.5    1004         25          
2014-02-06 06   12.7    71.4    1004         25          
2014-02-06 12   13.0    71.1    1000         30          
2014-02-06 18   13.5    70.8    1000         30          
2014-02-07 00   14.0    70.5    1000         30          
2014-02-07 06   14.8    70.4     996         35          
2014-02-07 12   15.5    69.7     996         35          
2014-02-07 18   15.5    69.4     996         35          
2014-02-08 00   14.9    69.4     993    1    40          
2014-02-08 06   15.0    70.2     993    1    40          
2014-02-08 12   14.8    71.0     989    1    45          
2014-02-08 18   15.1    71.8     985    1    50          
2014-02-09 00   15.5    72.8     982    2    55          
2014-02-09 00   15.5    72.8     982    2    55          
2014-02-09 06   15.8    74.0     982    2    55          
2014-02-09 06   15.8    74.0     982    2    55          
2014-02-09 12   16.8    75.2     982    2    55          
2014-02-09 12   16.8    75.2     982    2    55          
2014-02-09 18   18.7    75.7     978    2    60          
2014-02-09 18   18.7    75.7     978    2    60          
2014-02-09 21   20.1    75.5     978    2    60          
2014-02-09 21   20.1    75.5     978    2    60          
2014-02-10 00   21.1    74.7     978    2    60          
2014-02-10 00   21.1    74.7     978    2    60          
2014-02-10 06   22.5    72.5     982    2    55          
2014-02-10 06   22.5    72.5     982    2    55          
2014-02-10 12   23.1    70.0     985    1    50          
2014-02-10 18   23.2    68.8     989    1    45          
2014-02-11 00   23.3    67.7     989    1    45          
2014-02-11 06   23.9    67.0     993    1    40          
2014-02-11 12   24.5    66.3     996         35          
2014-02-11 18   25.3    65.8     996         35          
2014-02-12 00   26.1    65.4     993    1    40          
2014-02-12 06   27.1    64.9     993    1    40          
2014-02-12 12   28.1    64.5     989    1    45          
2014-02-12 18   28.8    64.2     989    1    45          
2014-02-13 00   29.4    63.8     989    1    45          
2014-02-13 06   29.6    63.3     993    1    40          
2014-02-13 12   29.8    62.9     993    1    40          
2014-02-13 18   29.8    62.4     993    1    40          
2014-02-14 00   29.8    61.9     996         35          
2014-02-14 06   30.0    61.5    1000         30          
2014-02-14 12   30.6    60.8    1000         30          
2014-02-14 18   31.2    59.9    1004         25          
2014-02-15 00   31.6    59.8    1004         25          
2014-02-15 06   31.9    59.7    1004         25          
2014-02-15 12   32.1    59.2     996         35          
2014-02-15 18   31.9    59.4     996         35          
2014-02-16 00   31.8    59.8     996         35          
2014-02-16 06   31.8    60.9    1000         30          
2014-02-16 12   32.2    62.1    1000         30          
2014-02-16 18   32.8    64.2    1000         30          
Winds are 1-min average.

Tropical cyclone tracks developed by Michael Bath using data from the Joint Typhoon Warning Centre Best Tracks and Google Maps.


[Australian Severe Weather index] [Copyright Notice] [Email Contacts] [Search This Site] [Privacy Policy]
Document: tropical_cyclone_fobane.htm Updated: 28 June 2017